createdAt,value
2023-04-01T00:01:54.858Z,99046.00
2023-04-01T00:04:24.856Z,99059.84
2023-04-01T00:06:55.534Z,99051.13
2023-04-01T00:09:25.544Z,99041.59
2023-04-01T00:11:59.995Z,99042.81
2023-04-01T00:14:32.582Z,99032.44
2023-04-01T00:17:02.955Z,99052.56
2023-04-01T00:19:33.639Z,99053.16
2023-04-01T00:22:03.643Z,99044.66
2023-04-01T00:24:33.706Z,99048.22
2023-04-01T00:27:03.619Z,99038.09
2023-04-01T00:29:38.129Z,99043.06
2023-04-01T00:32:08.553Z,99042.03
2023-04-01T00:34:38.812Z,99044.16
2023-04-01T00:37:08.921Z,99055.50
2023-04-01T00:39:39.888Z,99055.72
2023-04-01T00:42:22.955Z,99049.53
2023-04-01T00:45:10.876Z,99050.72
2023-04-01T00:47:55.306Z,99046.97
2023-04-01T00:50:35.145Z,99040.34
2023-04-01T00:53:07.137Z,99050.28
2023-04-01T00:55:42.874Z,99043.88
2023-04-01T00:58:20.928Z,99041.16
2023-04-01T01:00:56.666Z,99036.84
2023-04-01T01:03:28.100Z,99028.47
2023-04-01T01:06:24.366Z,99028.31
2023-04-01T01:09:11.826Z,99036.22
2023-04-01T01:11:47.123Z,99025.00
2023-04-01T01:14:41.036Z,99030.03
2023-04-01T01:17:23.428Z,99022.50
2023-04-01T01:20:26.048Z,99028.16
2023-04-01T01:23:25.946Z,99021.06
2023-04-01T01:26:14.014Z,99030.16
2023-04-01T01:28:58.119Z,99023.28
2023-04-01T01:31:41.145Z,99022.44
2023-04-01T01:34:26.383Z,99019.38
2023-04-01T01:37:05.183Z,99023.28
2023-04-01T01:39:38.968Z,99029.28
2023-04-01T01:42:13.449Z,99026.19
2023-04-01T01:44:48.499Z,99029.78
2023-04-01T01:47:23.110Z,99019.53
2023-04-01T01:49:56.067Z,99011.34
2023-04-01T01:52:31.993Z,99010.22
2023-04-01T01:55:02.765Z,99013.16
2023-04-01T01:57:44.651Z,99000.75
2023-04-01T02:00:21.868Z,99013.78
2023-04-01T02:02:53.997Z,99016.59
2023-04-01T02:05:28.191Z,99011.00
2023-04-01T02:08:13.549Z,99014.66
2023-04-01T02:10:51.369Z,99002.06
2023-04-01T02:13:33.046Z,99002.69
2023-04-01T02:16:09.877Z,99006.50
2023-04-01T02:18:43.309Z,99004.19
2023-04-01T02:21:15.460Z,99004.63
2023-04-01T02:23:50.979Z,99012.25
2023-04-01T02:26:22.451Z,98997.16
2023-04-01T02:28:55.578Z,99000.84
2023-04-01T02:31:28.585Z,99002.50
2023-04-01T02:33:58.860Z,99001.47
2023-04-01T02:36:29.058Z,98997.69
2023-04-01T02:39:05.418Z,99001.91
2023-04-01T02:41:35.486Z,98984.41
2023-04-01T02:44:05.687Z,98996.28
2023-04-01T02:46:35.999Z,98999.50
2023-04-01T02:49:06.197Z,98998.09
2023-04-01T02:51:36.658Z,98998.09
2023-04-01T02:54:09.308Z,98998.50
2023-04-01T02:56:39.353Z,99002.84
2023-04-01T02:59:09.305Z,98996.84
2023-04-01T03:01:39.610Z,99014.09
2023-04-01T03:04:09.586Z,98998.97
2023-04-01T03:06:39.528Z,98993.97
2023-04-01T03:09:12.519Z,99011.38
2023-04-01T03:11:42.674Z,98992.94
2023-04-01T03:14:12.617Z,99002.66
2023-04-01T03:16:42.576Z,99021.06
2023-04-01T03:19:12.632Z,99016.88
2023-04-01T03:21:42.714Z,99007.44
2023-04-01T03:24:15.557Z,99006.41
2023-04-01T03:26:45.622Z,98993.59
2023-04-01T03:29:16.882Z,99007.81
2023-04-01T03:31:47.608Z,99011.38
2023-04-01T03:34:17.842Z,99007.66
2023-04-01T03:36:47.982Z,99006.00
2023-04-01T03:39:20.993Z,99004.03
2023-04-01T03:41:51.171Z,99020.19
2023-04-01T03:44:21.234Z,99012.25
2023-04-01T03:46:54.667Z,99002.78
2023-04-01T03:49:24.705Z,99005.22
2023-04-01T03:51:54.636Z,99006.25
2023-04-01T03:54:27.864Z,98991.13
2023-04-01T03:56:59.160Z,99009.34
2023-04-01T03:59:29.553Z,99005.22
2023-04-01T04:01:59.581Z,99013.56
2023-04-01T04:04:30.007Z,99000.06
2023-04-01T04:07:02.051Z,99012.72
2023-04-01T04:09:39.233Z,98996.56
2023-04-01T04:12:10.208Z,98999.88
2023-04-01T04:14:40.806Z,98997.88
2023-04-01T04:17:14.794Z,98996.56
2023-04-01T04:19:44.776Z,98999.72
2023-04-01T04:22:14.970Z,99001.97
2023-04-01T04:24:47.508Z,98997.88
2023-04-01T04:27:17.525Z,99002.63
2023-04-01T04:29:57.605Z,98991.41
2023-04-01T04:32:29.439Z,98994.53
2023-04-01T04:35:00.264Z,98976.53
2023-04-01T04:37:30.284Z,98997.06
2023-04-01T04:40:02.945Z,98996.28
2023-04-01T04:42:34.023Z,98979.84
2023-04-01T04:45:10.579Z,98981.59
2023-04-01T04:47:43.110Z,98980.84
2023-04-01T04:50:14.234Z,98965.91
2023-04-01T04:52:44.589Z,98988.78
2023-04-01T04:55:17.353Z,98968.44
2023-04-01T04:57:51.331Z,98966.38
2023-04-01T05:00:22.132Z,98976.41
2023-04-01T05:03:02.450Z,98964.88
2023-04-01T05:05:32.630Z,98961.75
2023-04-01T05:08:03.068Z,98970.81
2023-04-01T05:10:36.154Z,98951.41
2023-04-01T05:13:06.191Z,98967.66
2023-04-01T05:15:36.407Z,98959.72
2023-04-01T05:18:06.554Z,98966.09
2023-04-01T05:20:37.120Z,98969.84
2023-04-01T05:23:07.194Z,98951.88
2023-04-01T05:25:41.707Z,98965.34
2023-04-01T05:28:12.335Z,98950.75
2023-04-01T05:30:45.570Z,98959.25
2023-04-01T05:33:29.759Z,98955.50
2023-04-01T05:36:00.266Z,98973.75
2023-04-01T05:38:30.384Z,98978.91
2023-04-01T05:41:05.859Z,98965.34
2023-04-01T05:43:40.845Z,98974.91
2023-04-01T05:46:39.925Z,98968.19
2023-04-01T05:49:20.106Z,98961.66
2023-04-01T05:51:52.365Z,98974.34
2023-04-01T05:54:23.088Z,98958.03
2023-04-01T05:56:56.225Z,98960.81
2023-04-01T05:59:26.351Z,98971.84
2023-04-01T06:01:58.817Z,98974.28
2023-04-01T06:04:38.514Z,98962.22
2023-04-01T06:07:14.669Z,98962.63
2023-04-01T06:09:45.824Z,98971.22
2023-04-01T06:12:48.209Z,98969.69
2023-04-01T06:15:29.672Z,98961.16
2023-04-01T06:18:32.339Z,98973.94
2023-04-01T06:21:15.605Z,98968.84
2023-04-01T06:24:14.190Z,98991.63
2023-04-01T06:26:57.370Z,98982.94
2023-04-01T06:29:50.744Z,98979.69
2023-04-01T06:32:53.143Z,98989.28
2023-04-01T06:35:56.979Z,98986.22
2023-04-01T06:38:50.144Z,98980.84
2023-04-01T06:41:46.198Z,98991.25
2023-04-01T06:44:26.839Z,99001.56
2023-04-01T06:47:34.170Z,98994.41
2023-04-01T06:50:32.941Z,99000.34
2023-04-01T06:53:30.292Z,98996.44
2023-04-01T06:56:23.119Z,98986.97
2023-04-01T06:59:14.013Z,98979.75
2023-04-01T07:01:48.068Z,98999.00
2023-04-01T07:04:28.709Z,98985.16
2023-04-01T07:07:03.551Z,98992.50
2023-04-01T07:09:39.312Z,98991.34
2023-04-01T07:12:50.497Z,99003.13
2023-04-01T07:16:02.693Z,98992.84
2023-04-01T07:18:41.293Z,99001.13
2023-04-01T07:21:26.208Z,98993.00
2023-04-01T07:24:05.038Z,98999.78
2023-04-01T07:26:59.440Z,99002.75
2023-04-01T07:29:33.770Z,99016.88
2023-04-01T07:32:31.244Z,99013.81
2023-04-01T07:35:17.590Z,99006.66
2023-04-01T07:38:07.242Z,99014.69
2023-04-01T07:40:47.655Z,99022.00
2023-04-01T07:43:48.545Z,99025.97
2023-04-01T07:46:46.197Z,99016.66
2023-04-01T07:49:25.290Z,99007.06
2023-04-01T07:52:04.406Z,99019.69
2023-04-01T07:54:50.408Z,99002.22
2023-04-01T07:57:27.146Z,99005.69
2023-04-01T08:00:08.793Z,99011.53
2023-04-01T08:03:07.593Z,99003.53
2023-04-01T08:05:48.313Z,99002.63
2023-04-01T08:08:29.471Z,99003.31
2023-04-01T08:11:23.886Z,99018.69
2023-04-01T08:14:23.713Z,99015.44
2023-04-01T08:20:11.572Z,99014.63
2023-04-01T08:22:46.516Z,99011.25
2023-04-01T08:25:32.310Z,99024.09
2023-04-01T08:28:15.088Z,99026.03
2023-04-01T08:30:49.773Z,99033.06
2023-04-01T08:33:27.472Z,99028.53
2023-04-01T08:36:12.535Z,99030.94
2023-04-01T08:38:50.559Z,99030.56
2023-04-01T08:41:54.187Z,99033.28
2023-04-01T08:45:15.547Z,99029.75
2023-04-01T08:48:12.298Z,99034.91
2023-04-01T08:51:07.109Z,99034.06
2023-04-01T08:54:07.999Z,99033.56
2023-04-01T08:56:51.447Z,99044.84
2023-04-01T08:59:42.920Z,99020.50
2023-04-01T09:03:17.349Z,99037.00
2023-04-01T09:06:25.309Z,99042.03
2023-04-01T09:09:25.691Z,99037.59
2023-04-01T09:12:27.088Z,99041.44
2023-04-01T09:15:29.500Z,99047.19
2023-04-01T09:18:28.233Z,99048.81
2023-04-01T09:21:31.688Z,99049.00
2023-04-01T09:24:29.970Z,99045.69
2023-04-01T09:27:29.615Z,99050.50
2023-04-01T09:30:36.691Z,99049.44
2023-04-01T09:33:39.370Z,99059.97
2023-04-01T09:36:28.151Z,99055.22
2023-04-01T09:39:02.966Z,99054.69
2023-04-01T09:41:35.762Z,99055.50
2023-04-01T09:44:23.464Z,99066.56
2023-04-01T09:47:29.086Z,99051.47
2023-04-01T09:50:33.985Z,99066.41
2023-04-01T09:53:22.766Z,99061.06
2023-04-01T09:56:33.072Z,99060.53
2023-04-01T09:59:34.544Z,99060.91
2023-04-01T10:03:06.469Z,99051.31
2023-04-01T10:06:24.288Z,99064.72
2023-04-01T10:09:41.810Z,99074.03
2023-04-01T10:12:49.673Z,99086.88
2023-04-01T10:15:47.679Z,99078.78
2023-04-01T10:18:48.420Z,99078.03
2023-04-01T10:22:00.984Z,99088.19
2023-04-01T10:25:06.656Z,99072.28
2023-04-01T10:28:00.698Z,99096.84
2023-04-01T10:31:59.253Z,99092.69
2023-04-01T10:35:08.888Z,99080.38
2023-04-01T10:38:15.023Z,99097.56
2023-04-01T10:41:26.077Z,99085.50
2023-04-01T10:45:00.255Z,99072.22
2023-04-01T10:48:13.226Z,99087.06
2023-04-01T10:51:16.515Z,99086.06
2023-04-01T10:54:07.629Z,99091.41
2023-04-01T10:57:19.862Z,99090.28
2023-04-01T11:00:38.164Z,99091.81
2023-04-01T11:04:27.522Z,99092.22
2023-04-01T11:08:05.476Z,99092.13
2023-04-01T11:11:24.936Z,99094.75
2023-04-01T11:14:31.931Z,99106.81
2023-04-01T11:17:30.471Z,99115.81
2023-04-01T11:20:32.157Z,99111.78
2023-04-01T11:23:26.220Z,99114.13
2023-04-01T11:26:18.331Z,99115.00
2023-04-01T11:29:30.857Z,99118.66
2023-04-01T11:32:28.847Z,99116.63
2023-04-01T11:35:24.226Z,99114.91
2023-04-01T11:38:08.122Z,99119.94
2023-04-01T11:41:02.310Z,99124.13
2023-04-01T11:44:11.603Z,99132.66
2023-04-01T11:47:40.119Z,99130.63
2023-04-01T11:50:28.647Z,99138.03
2023-04-01T11:53:14.114Z,99126.50
2023-04-01T11:56:00.253Z,99145.69
2023-04-01T11:58:53.819Z,99138.03
2023-04-01T12:01:42.731Z,99141.13
2023-04-01T12:04:50.051Z,99149.38
2023-04-01T12:07:31.841Z,99149.59
2023-04-01T12:10:19.185Z,99157.94
2023-04-01T12:13:03.438Z,99156.78
2023-04-01T12:15:50.752Z,99162.22
2023-04-01T12:18:34.137Z,99158.00
2023-04-01T12:21:21.623Z,99160.16
2023-04-01T12:24:23.055Z,99168.72
2023-04-01T12:27:10.322Z,99164.59
2023-04-01T12:30:14.177Z,99177.00
2023-04-01T12:32:52.055Z,99174.44
2023-04-01T12:35:28.690Z,99176.03
2023-04-01T12:38:19.697Z,99181.41
2023-04-01T12:41:07.071Z,99170.03
2023-04-01T12:44:03.157Z,99172.94
2023-04-01T12:46:58.977Z,99176.53
2023-04-01T12:49:57.437Z,99171.53
2023-04-01T12:52:45.201Z,99154.97
2023-04-01T12:55:51.747Z,99183.09
2023-04-01T12:58:57.936Z,99169.56
2023-04-01T13:01:57.689Z,99177.59
2023-04-01T13:04:53.468Z,99183.72
2023-04-01T13:07:54.007Z,99189.88
2023-04-01T13:10:56.054Z,99195.53
2023-04-01T13:13:51.927Z,99188.56
2023-04-01T13:16:30.194Z,99197.59
2023-04-01T13:19:12.818Z,99195.81
2023-04-01T13:21:55.480Z,99202.22
2023-04-01T13:24:43.328Z,99206.13
2023-04-01T13:27:22.577Z,99198.47
2023-04-01T13:30:11.871Z,99209.16
2023-04-01T13:32:51.282Z,99207.06
2023-04-01T13:35:39.372Z,99206.84
2023-04-01T13:38:46.464Z,99217.47
2023-04-01T13:41:29.845Z,99213.13
2023-04-01T13:44:11.158Z,99210.41
2023-04-01T13:47:08.393Z,99221.84
2023-04-01T13:50:10.463Z,99222.41
2023-04-01T13:53:16.199Z,99216.13
2023-04-01T13:55:59.414Z,99224.34
2023-04-01T13:58:47.698Z,99225.00
2023-04-01T14:01:26.165Z,99225.03
2023-04-01T14:04:24.415Z,99219.75
2023-04-01T14:07:08.669Z,99235.66
2023-04-01T14:10:07.837Z,99223.91
2023-04-01T14:12:54.560Z,99219.81
2023-04-01T14:15:43.350Z,99223.91
2023-04-01T14:18:37.349Z,99223.91
2023-04-01T14:21:25.717Z,99218.06
2023-04-01T14:24:27.498Z,99219.03
2023-04-01T14:27:29.248Z,99225.44
2023-04-01T14:30:20.560Z,99235.09
2023-04-01T14:33:00.316Z,99231.34
2023-04-01T14:35:41.057Z,99230.31
2023-04-01T14:38:34.013Z,99230.78
2023-04-01T14:41:19.778Z,99233.38
2023-04-01T14:44:21.661Z,99225.50
2023-04-01T14:47:40.666Z,99229.84
2023-04-01T14:50:17.842Z,99242.00
2023-04-01T14:52:59.561Z,99236.56
2023-04-01T14:55:36.940Z,99241.88
2023-04-01T14:58:16.413Z,99223.72
2023-04-01T15:00:54.523Z,99235.41
2023-04-01T15:03:34.264Z,99237.66
2023-04-01T15:06:36.436Z,99231.16
2023-04-01T15:09:22.074Z,99227.47
2023-04-01T15:12:04.886Z,99234.44
2023-04-01T15:15:00.452Z,99236.72
2023-04-01T15:17:50.709Z,99236.13
2023-04-01T15:20:45.154Z,99248.94
2023-04-01T15:23:31.822Z,99240.81
2023-04-01T15:26:21.354Z,99246.88
2023-04-01T15:29:11.373Z,99233.47
2023-04-01T15:31:50.887Z,99246.56
2023-04-01T15:34:32.804Z,99253.50
2023-04-01T15:37:17.801Z,99249.28
2023-04-01T15:40:01.994Z,99244.81
2023-04-01T15:42:51.935Z,99250.09
2023-04-01T15:45:36.546Z,99256.50
2023-04-01T15:48:17.174Z,99265.91
2023-04-01T15:50:58.589Z,99253.72
2023-04-01T15:53:53.471Z,99262.72
2023-04-01T15:56:34.084Z,99258.06
2023-04-01T15:59:20.006Z,99256.91
2023-04-01T16:02:02.774Z,99266.81
2023-04-01T16:04:50.641Z,99257.94
2023-04-01T16:07:47.947Z,99270.16
2023-04-01T16:10:48.362Z,99272.66
2023-04-01T16:13:46.275Z,99264.72
2023-04-01T16:16:31.560Z,99260.63
2023-04-01T16:19:26.958Z,99260.75
2023-04-01T16:22:05.252Z,99262.19
2023-04-01T16:24:44.484Z,99264.41
2023-04-01T16:27:23.557Z,99270.88
2023-04-01T16:30:01.058Z,99271.16
2023-04-01T16:32:45.187Z,99270.56
2023-04-01T16:35:29.079Z,99272.50
2023-04-01T16:38:07.150Z,99278.75
2023-04-01T16:40:50.128Z,99278.53
2023-04-01T16:46:29.863Z,99288.22
2023-04-01T16:49:20.949Z,99292.22
2023-04-01T16:51:58.795Z,99300.44
2023-04-01T16:54:40.304Z,99306.47
2023-04-01T16:57:22.868Z,99303.78
2023-04-01T17:00:06.834Z,99323.31
2023-04-01T17:02:46.787Z,99321.56
2023-04-01T17:05:17.053Z,99324.88
2023-04-01T17:08:00.089Z,99320.94
2023-04-01T17:10:42.580Z,99326.47
2023-04-01T17:13:39.358Z,99347.06
2023-04-01T17:16:31.205Z,99338.97
2023-04-01T17:19:16.438Z,99329.91
2023-04-01T17:22:03.037Z,99343.22
2023-04-01T17:24:51.253Z,99351.56
2023-04-01T17:27:37.177Z,99355.16
2023-04-01T17:30:21.743Z,99345.13
2023-04-01T17:33:14.809Z,99358.97
2023-04-01T17:35:59.493Z,99355.88
2023-04-01T17:38:54.060Z,99350.28
2023-04-01T17:41:40.379Z,99360.59
2023-04-01T17:44:25.777Z,99360.94
2023-04-01T17:47:13.648Z,99362.41
2023-04-01T17:49:57.073Z,99361.91
2023-04-01T17:52:36.057Z,99372.66
2023-04-01T17:55:46.467Z,99373.84
2023-04-01T17:58:24.020Z,99378.06
2023-04-01T18:01:13.575Z,99381.41
2023-04-01T18:04:22.784Z,99374.38
2023-04-01T18:07:29.155Z,99379.75
2023-04-01T18:10:15.134Z,99378.38
2023-04-01T18:13:14.606Z,99384.44
2023-04-01T18:15:54.763Z,99383.09
2023-04-01T18:18:44.762Z,99389.16
2023-04-01T18:21:28.209Z,99390.66
2023-04-01T18:24:09.929Z,99384.53
2023-04-01T18:26:46.617Z,99397.69
2023-04-01T18:29:31.956Z,99387.66
2023-04-01T18:32:19.396Z,99392.59
2023-04-01T18:35:01.207Z,99397.69
2023-04-01T18:37:37.949Z,99398.81
2023-04-01T18:40:21.083Z,99402.97
2023-04-01T18:43:06.886Z,99402.78
2023-04-01T18:45:44.041Z,99406.50
2023-04-01T18:48:43.706Z,99404.28
2023-04-01T18:51:21.409Z,99413.81
2023-04-01T18:54:01.113Z,99417.06
2023-04-01T18:56:39.120Z,99417.28
2023-04-01T18:59:15.656Z,99425.53
2023-04-01T19:02:00.821Z,99430.91
2023-04-01T19:04:41.060Z,99433.44
2023-04-01T19:07:52.533Z,99444.47
2023-04-01T19:10:35.062Z,99451.41
2023-04-01T19:13:23.923Z,99454.19
2023-04-01T19:16:08.400Z,99450.91
2023-04-01T19:19:05.809Z,99455.91
2023-04-01T19:21:44.459Z,99458.66
2023-04-01T19:24:41.212Z,99457.59
2023-04-01T19:27:26.934Z,99456.09
2023-04-01T19:30:18.239Z,99461.97
2023-04-01T19:32:59.788Z,99461.59
2023-04-01T19:35:43.233Z,99471.81
2023-04-01T19:38:23.379Z,99476.19
2023-04-01T19:40:59.149Z,99486.41
2023-04-01T19:43:48.289Z,99487.59
2023-04-01T19:46:33.017Z,99489.75
2023-04-01T19:49:24.073Z,99486.34
2023-04-01T19:52:05.119Z,99498.31
2023-04-01T19:54:45.097Z,99485.31
2023-04-01T19:57:29.615Z,99485.50
2023-04-01T20:00:09.193Z,99496.94
2023-04-01T20:03:03.634Z,99492.56
2023-04-01T20:05:53.914Z,99491.81
2023-04-01T20:08:35.912Z,99501.00
2023-04-01T20:11:24.129Z,99498.22
2023-04-01T20:14:10.554Z,99495.53
2023-04-01T20:17:06.660Z,99504.28
2023-04-01T20:19:45.811Z,99506.31
2023-04-01T20:22:38.478Z,99515.78
2023-04-01T20:25:20.531Z,99524.16
2023-04-01T20:27:58.855Z,99515.78
2023-04-01T20:30:58.710Z,99524.81
2023-04-01T20:33:58.854Z,99525.00
2023-04-01T20:36:40.118Z,99528.09
2023-04-01T20:39:52.826Z,99527.31
2023-04-01T20:42:36.684Z,99537.34
2023-04-01T20:45:25.652Z,99536.59
2023-04-01T20:48:17.195Z,99537.00
2023-04-01T20:50:55.225Z,99532.06
2023-04-01T20:53:38.453Z,99542.91
2023-04-01T20:56:31.320Z,99543.19
2023-04-01T20:59:24.915Z,99546.56
2023-04-01T21:02:08.000Z,99547.00
2023-04-01T21:04:57.014Z,99555.28
2023-04-01T21:07:38.432Z,99559.47
2023-04-01T21:10:33.528Z,99554.25
2023-04-01T21:13:21.602Z,99552.28
2023-04-01T21:16:05.863Z,99555.16
2023-04-01T21:18:59.118Z,99555.69
2023-04-01T21:21:57.670Z,99569.81
2023-04-01T21:24:47.506Z,99559.16
2023-04-01T21:27:42.027Z,99565.16
2023-04-01T21:30:42.385Z,99574.56
2023-04-01T21:33:34.274Z,99572.97
2023-04-01T21:36:22.447Z,99578.91
2023-04-01T21:39:09.237Z,99576.16
2023-04-01T21:42:03.165Z,99584.41
2023-04-01T21:45:15.871Z,99581.34
2023-04-01T21:48:21.016Z,99586.66
2023-04-01T21:51:30.829Z,99589.69
2023-04-01T21:54:40.754Z,99591.88
2023-04-01T21:57:46.008Z,99591.66
2023-04-01T22:00:29.222Z,99596.31
2023-04-01T22:03:37.861Z,99603.47
2023-04-01T22:06:30.160Z,99600.06
2023-04-01T22:09:14.540Z,99596.03
2023-04-01T22:12:06.344Z,99601.81
2023-04-01T22:14:51.466Z,99600.84
2023-04-01T22:17:37.853Z,99606.75
2023-04-01T22:20:25.640Z,99598.56
2023-04-01T22:23:18.899Z,99609.34
2023-04-01T22:26:00.312Z,99607.44
2023-04-01T22:28:41.929Z,99614.44
2023-04-01T22:31:20.809Z,99618.81
2023-04-01T22:34:05.887Z,99615.91
2023-04-01T22:36:48.282Z,99617.00
2023-04-01T22:39:39.170Z,99617.47
2023-04-01T22:42:26.431Z,99618.53
2023-04-01T22:45:14.347Z,99621.28
2023-04-01T22:48:03.169Z,99621.56
2023-04-01T22:50:41.595Z,99619.72
2023-04-01T22:53:27.634Z,99620.09
2023-04-01T22:56:07.325Z,99619.56
2023-04-01T22:58:44.833Z,99622.81
2023-04-01T23:01:22.116Z,99632.06
2023-04-01T23:03:56.048Z,99623.59
2023-04-01T23:06:33.170Z,99628.47
2023-04-01T23:09:15.265Z,99629.31
2023-04-01T23:11:55.508Z,99631.19
2023-04-01T23:14:41.863Z,99634.75
2023-04-01T23:17:40.730Z,99638.13
2023-04-01T23:20:27.361Z,99643.03
2023-04-01T23:23:16.000Z,99640.81
2023-04-01T23:25:58.212Z,99647.41
2023-04-01T23:28:48.342Z,99654.00
2023-04-01T23:31:40.566Z,99659.19
2023-04-01T23:34:29.971Z,99665.91
2023-04-01T23:37:04.687Z,99666.31
2023-04-01T23:39:40.916Z,99677.09
2023-04-01T23:42:19.078Z,99675.41
2023-04-01T23:44:52.248Z,99680.34
2023-04-01T23:47:26.262Z,99675.13
2023-04-01T23:50:04.275Z,99686.97
2023-04-01T23:52:39.145Z,99683.59
2023-04-01T23:55:21.147Z,99696.75
2023-04-01T23:58:18.691Z,99697.75
